sensor_id;sensor_type;location;lat;lon;timestamp;temperature;humidity
12819;DHT22;6474;53.474;9.894;2023-04-24T00:01:32;13.20;69.80
12819;DHT22;6474;53.474;9.894;2023-04-24T00:04:00;13.20;69.70
12819;DHT22;6474;53.474;9.894;2023-04-24T00:06:30;13.20;69.70
12819;DHT22;6474;53.474;9.894;2023-04-24T00:09:00;13.20;69.80
12819;DHT22;6474;53.474;9.894;2023-04-24T00:11:28;13.10;69.60
12819;DHT22;6474;53.474;9.894;2023-04-24T00:13:56;13.10;69.70
12819;DHT22;6474;53.474;9.894;2023-04-24T00:16:25;13.10;69.80
12819;DHT22;6474;53.474;9.894;2023-04-24T00:18:53;13.10;69.80
12819;DHT22;6474;53.474;9.894;2023-04-24T00:21:21;13.10;69.80
12819;DHT22;6474;53.474;9.894;2023-04-24T00:23:52;13.10;69.90
12819;DHT22;6474;53.474;9.894;2023-04-24T00:26:20;13.00;69.80
12819;DHT22;6474;53.474;9.894;2023-04-24T00:28:48;13.00;69.80
12819;DHT22;6474;53.474;9.894;2023-04-24T00:31:16;13.10;69.90
12819;DHT22;6474;53.474;9.894;2023-04-24T00:33:45;13.10;70.00
12819;DHT22;6474;53.474;9.894;2023-04-24T00:36:13;13.00;69.80
12819;DHT22;6474;53.474;9.894;2023-04-24T00:38:40;13.00;69.80
12819;DHT22;6474;53.474;9.894;2023-04-24T00:41:08;13.00;69.80
12819;DHT22;6474;53.474;9.894;2023-04-24T00:43:36;12.90;69.70
12819;DHT22;6474;53.474;9.894;2023-04-24T00:46:04;12.90;69.70
12819;DHT22;6474;53.474;9.894;2023-04-24T00:48:32;12.80;69.60
12819;DHT22;6474;53.474;9.894;2023-04-24T00:51:02;12.80;69.60
12819;DHT22;6474;53.474;9.894;2023-04-24T00:53:30;12.70;69.60
12819;DHT22;6474;53.474;9.894;2023-04-24T00:55:58;12.70;69.60
12819;DHT22;6474;53.474;9.894;2023-04-24T00:58:26;12.70;69.80
12819;DHT22;6474;53.474;9.894;2023-04-24T01:00:54;12.60;69.80
12819;DHT22;6474;53.474;9.894;2023-04-24T01:03:27;12.60;69.80
12819;DHT22;6474;53.474;9.894;2023-04-24T01:05:56;12.60;69.90
12819;DHT22;6474;53.474;9.894;2023-04-24T01:08:28;12.50;69.80
12819;DHT22;6474;53.474;9.894;2023-04-24T01:10:57;12.50;69.80
12819;DHT22;6474;53.474;9.894;2023-04-24T01:13:25;12.50;69.80
12819;DHT22;6474;53.474;9.894;2023-04-24T01:15:53;12.40;69.80
12819;DHT22;6474;53.474;9.894;2023-04-24T01:18:21;12.40;70.60
12819;DHT22;6474;53.474;9.894;2023-04-24T01:20:51;12.40;70.00
12819;DHT22;6474;53.474;9.894;2023-04-24T01:23:21;12.40;70.00
12819;DHT22;6474;53.474;9.894;2023-04-24T01:25:50;12.40;70.00
12819;DHT22;6474;53.474;9.894;2023-04-24T01:28:18;12.40;70.10
12819;DHT22;6474;53.474;9.894;2023-04-24T01:30:46;12.40;70.10
12819;DHT22;6474;53.474;9.894;2023-04-24T01:33:13;12.50;70.10
12819;DHT22;6474;53.474;9.894;2023-04-24T01:35:42;12.50;70.10
12819;DHT22;6474;53.474;9.894;2023-04-24T01:38:10;12.50;70.10
12819;DHT22;6474;53.474;9.894;2023-04-24T01:40:39;12.50;70.10
12819;DHT22;6474;53.474;9.894;2023-04-24T01:43:07;12.40;70.00
12819;DHT22;6474;53.474;9.894;2023-04-24T01:45:35;12.50;70.00
12819;DHT22;6474;53.474;9.894;2023-04-24T01:48:03;12.50;70.10
12819;DHT22;6474;53.474;9.894;2023-04-24T01:50:31;12.50;70.10
12819;DHT22;6474;53.474;9.894;2023-04-24T01:52:59;12.50;70.20
12819;DHT22;6474;53.474;9.894;2023-04-24T01:55:27;12.50;70.20
12819;DHT22;6474;53.474;9.894;2023-04-24T01:57:56;12.50;70.00
12819;DHT22;6474;53.474;9.894;2023-04-24T02:00:25;12.50;70.10
12819;DHT22;6474;53.474;9.894;2023-04-24T02:02:52;12.40;70.00
12819;DHT22;6474;53.474;9.894;2023-04-24T02:05:20;12.40;70.00
12819;DHT22;6474;53.474;9.894;2023-04-24T02:07:49;12.40;70.10
12819;DHT22;6474;53.474;9.894;2023-04-24T02:10:16;12.30;70.00
12819;DHT22;6474;53.474;9.894;2023-04-24T02:12:45;12.30;70.00
12819;DHT22;6474;53.474;9.894;2023-04-24T02:15:14;12.30;70.00
12819;DHT22;6474;53.474;9.894;2023-04-24T02:17:42;12.20;69.90
12819;DHT22;6474;53.474;9.894;2023-04-24T02:20:10;12.20;69.90
12819;DHT22;6474;53.474;9.894;2023-04-24T02:22:38;12.10;69.90
12819;DHT22;6474;53.474;9.894;2023-04-24T02:25:06;12.10;69.90
12819;DHT22;6474;53.474;9.894;2023-04-24T02:27:34;12.00;70.00
12819;DHT22;6474;53.474;9.894;2023-04-24T02:30:02;11.90;70.00
12819;DHT22;6474;53.474;9.894;2023-04-24T02:32:31;11.90;70.00
12819;DHT22;6474;53.474;9.894;2023-04-24T02:35:01;11.80;70.00
12819;DHT22;6474;53.474;9.894;2023-04-24T02:37:29;11.80;70.10
12819;DHT22;6474;53.474;9.894;2023-04-24T02:39:57;11.80;70.10
12819;DHT22;6474;53.474;9.894;2023-04-24T02:42:24;11.70;70.10
12819;DHT22;6474;53.474;9.894;2023-04-24T02:44:52;11.60;70.10
12819;DHT22;6474;53.474;9.894;2023-04-24T02:47:20;11.60;70.10
12819;DHT22;6474;53.474;9.894;2023-04-24T02:49:49;11.60;70.10
12819;DHT22;6474;53.474;9.894;2023-04-24T02:52:17;11.50;70.10
12819;DHT22;6474;53.474;9.894;2023-04-24T02:54:44;11.50;70.10
12819;DHT22;6474;53.474;9.894;2023-04-24T02:57:12;11.50;70.20
12819;DHT22;6474;53.474;9.894;2023-04-24T02:59:40;11.40;70.10
12819;DHT22;6474;53.474;9.894;2023-04-24T03:02:08;11.40;70.20
12819;DHT22;6474;53.474;9.894;2023-04-24T03:04:36;11.40;70.20
12819;DHT22;6474;53.474;9.894;2023-04-24T03:07:08;11.40;70.20
12819;DHT22;6474;53.474;9.894;2023-04-24T03:09:38;11.40;70.20
12819;DHT22;6474;53.474;9.894;2023-04-24T03:12:06;11.30;70.10
12819;DHT22;6474;53.474;9.894;2023-04-24T03:14:34;11.30;70.20
12819;DHT22;6474;53.474;9.894;2023-04-24T03:17:02;11.30;70.20
12819;DHT22;6474;53.474;9.894;2023-04-24T03:19:30;11.20;70.20
12819;DHT22;6474;53.474;9.894;2023-04-24T03:21:57;11.20;70.20
12819;DHT22;6474;53.474;9.894;2023-04-24T03:24:27;11.20;70.30
12819;DHT22;6474;53.474;9.894;2023-04-24T03:26:55;11.10;70.20
12819;DHT22;6474;53.474;9.894;2023-04-24T03:29:23;11.10;70.20
12819;DHT22;6474;53.474;9.894;2023-04-24T03:31:51;11.10;70.20
12819;DHT22;6474;53.474;9.894;2023-04-24T03:34:19;11.00;70.20
12819;DHT22;6474;53.474;9.894;2023-04-24T03:36:47;11.00;70.20
12819;DHT22;6474;53.474;9.894;2023-04-24T03:39:15;11.00;70.30
12819;DHT22;6474;53.474;9.894;2023-04-24T03:41:44;11.00;70.30
12819;DHT22;6474;53.474;9.894;2023-04-24T03:44:12;11.00;70.30
12819;DHT22;6474;53.474;9.894;2023-04-24T03:46:39;10.90;70.20
12819;DHT22;6474;53.474;9.894;2023-04-24T03:49:07;10.90;70.30
12819;DHT22;6474;53.474;9.894;2023-04-24T03:51:35;10.90;70.20
12819;DHT22;6474;53.474;9.894;2023-04-24T03:54:03;10.90;70.20
12819;DHT22;6474;53.474;9.894;2023-04-24T03:56:31;10.90;70.30
12819;DHT22;6474;53.474;9.894;2023-04-24T03:59:00;10.80;70.30
12819;DHT22;6474;53.474;9.894;2023-04-24T04:01:29;10.80;70.30
12819;DHT22;6474;53.474;9.894;2023-04-24T04:03:57;10.80;70.30
12819;DHT22;6474;53.474;9.894;2023-04-24T04:06:25;10.80;70.30
12819;DHT22;6474;53.474;9.894;2023-04-24T04:08:53;10.80;70.30
12819;DHT22;6474;53.474;9.894;2023-04-24T04:11:21;10.80;70.30
12819;DHT22;6474;53.474;9.894;2023-04-24T04:13:48;10.80;70.30
12819;DHT22;6474;53.474;9.894;2023-04-24T04:16:18;10.80;70.20
12819;DHT22;6474;53.474;9.894;2023-04-24T04:18:46;10.80;70.30
12819;DHT22;6474;53.474;9.894;2023-04-24T04:21:13;10.70;70.20
12819;DHT22;6474;53.474;9.894;2023-04-24T04:23:41;10.70;70.20
12819;DHT22;6474;53.474;9.894;2023-04-24T04:26:09;10.70;70.30
12819;DHT22;6474;53.474;9.894;2023-04-24T04:28:39;10.70;70.30
12819;DHT22;6474;53.474;9.894;2023-04-24T04:31:07;10.70;70.30
12819;DHT22;6474;53.474;9.894;2023-04-24T04:33:37;10.70;70.30
12819;DHT22;6474;53.474;9.894;2023-04-24T04:36:06;10.70;70.30
12819;DHT22;6474;53.474;9.894;2023-04-24T04:38:34;10.80;70.40
12819;DHT22;6474;53.474;9.894;2023-04-24T04:41:03;10.70;70.30
12819;DHT22;6474;53.474;9.894;2023-04-24T04:43:32;10.80;70.50
12819;DHT22;6474;53.474;9.894;2023-04-24T04:46:00;10.80;70.50
12819;DHT22;6474;53.474;9.894;2023-04-24T04:48:30;10.90;70.50
12819;DHT22;6474;53.474;9.894;2023-04-24T04:51:00;11.00;70.40
12819;DHT22;6474;53.474;9.894;2023-04-24T04:53:28;11.00;70.30
12819;DHT22;6474;53.474;9.894;2023-04-24T04:55:55;11.10;70.20
12819;DHT22;6474;53.474;9.894;2023-04-24T04:58:23;11.10;70.10
12819;DHT22;6474;53.474;9.894;2023-04-24T05:00:51;11.10;70.10
12819;DHT22;6474;53.474;9.894;2023-04-24T05:03:19;11.10;70.00
12819;DHT22;6474;53.474;9.894;2023-04-24T05:05:47;11.10;70.00
12819;DHT22;6474;53.474;9.894;2023-04-24T05:08:17;11.10;70.00
12819;DHT22;6474;53.474;9.894;2023-04-24T05:10:53;11.10;70.00
12819;DHT22;6474;53.474;9.894;2023-04-24T05:13:21;11.10;70.00
12819;DHT22;6474;53.474;9.894;2023-04-24T05:16:05;11.10;70.00
12819;DHT22;6474;53.474;9.894;2023-04-24T05:18:33;11.10;70.00
12819;DHT22;6474;53.474;9.894;2023-04-24T05:21:00;11.20;70.10
12819;DHT22;6474;53.474;9.894;2023-04-24T05:23:30;11.20;70.10
12819;DHT22;6474;53.474;9.894;2023-04-24T05:25:58;11.20;70.00
12819;DHT22;6474;53.474;9.894;2023-04-24T05:28:25;11.20;70.00
12819;DHT22;6474;53.474;9.894;2023-04-24T05:30:55;11.30;70.00
12819;DHT22;6474;53.474;9.894;2023-04-24T05:33:23;11.30;69.90
12819;DHT22;6474;53.474;9.894;2023-04-24T05:35:51;11.40;70.00
12819;DHT22;6474;53.474;9.894;2023-04-24T05:38:18;11.40;69.90
12819;DHT22;6474;53.474;9.894;2023-04-24T05:40:48;11.40;69.90
12819;DHT22;6474;53.474;9.894;2023-04-24T05:43:16;11.40;69.80
12819;DHT22;6474;53.474;9.894;2023-04-24T05:45:43;11.50;70.60
12819;DHT22;6474;53.474;9.894;2023-04-24T05:48:11;11.50;69.80
12819;DHT22;6474;53.474;9.894;2023-04-24T05:50:39;11.60;69.80
12819;DHT22;6474;53.474;9.894;2023-04-24T05:53:07;11.60;69.80
12819;DHT22;6474;53.474;9.894;2023-04-24T05:55:37;11.60;69.70
12819;DHT22;6474;53.474;9.894;2023-04-24T05:58:06;11.70;69.70
12819;DHT22;6474;53.474;9.894;2023-04-24T06:00:34;11.80;69.80
12819;DHT22;6474;53.474;9.894;2023-04-24T06:03:02;11.80;69.60
12819;DHT22;6474;53.474;9.894;2023-04-24T06:05:31;11.90;69.60
12819;DHT22;6474;53.474;9.894;2023-04-24T06:07:58;12.00;69.60
12819;DHT22;6474;53.474;9.894;2023-04-24T06:10:27;12.00;69.50
12819;DHT22;6474;53.474;9.894;2023-04-24T06:12:54;12.10;69.50
12819;DHT22;6474;53.474;9.894;2023-04-24T06:15:29;12.20;69.50
12819;DHT22;6474;53.474;9.894;2023-04-24T06:17:58;12.20;69.30
12819;DHT22;6474;53.474;9.894;2023-04-24T06:20:26;12.30;69.20
12819;DHT22;6474;53.474;9.894;2023-04-24T06:22:54;12.40;69.20
12819;DHT22;6474;53.474;9.894;2023-04-24T06:25:24;12.40;69.20
12819;DHT22;6474;53.474;9.894;2023-04-24T06:27:52;12.50;69.30
12819;DHT22;6474;53.474;9.894;2023-04-24T06:30:20;12.50;69.30
12819;DHT22;6474;53.474;9.894;2023-04-24T06:32:49;12.50;69.30
12819;DHT22;6474;53.474;9.894;2023-04-24T06:35:17;12.60;69.40
12819;DHT22;6474;53.474;9.894;2023-04-24T06:37:45;12.60;69.40
12819;DHT22;6474;53.474;9.894;2023-04-24T06:40:13;12.60;69.40
12819;DHT22;6474;53.474;9.894;2023-04-24T06:42:41;12.60;69.30
12819;DHT22;6474;53.474;9.894;2023-04-24T06:45:09;12.70;69.40
12819;DHT22;6474;53.474;9.894;2023-04-24T06:47:37;12.70;69.30
12819;DHT22;6474;53.474;9.894;2023-04-24T06:50:08;12.80;69.40
12819;DHT22;6474;53.474;9.894;2023-04-24T06:52:36;12.80;69.30
12819;DHT22;6474;53.474;9.894;2023-04-24T06:55:04;12.90;69.50
12819;DHT22;6474;53.474;9.894;2023-04-24T06:57:32;12.90;69.60
12819;DHT22;6474;53.474;9.894;2023-04-24T07:00:00;12.90;69.50
12819;DHT22;6474;53.474;9.894;2023-04-24T07:02:28;13.00;69.60
12819;DHT22;6474;53.474;9.894;2023-04-24T07:04:56;13.00;69.50
12819;DHT22;6474;53.474;9.894;2023-04-24T07:07:25;13.10;69.50
12819;DHT22;6474;53.474;9.894;2023-04-24T07:09:54;13.10;69.50
12819;DHT22;6474;53.474;9.894;2023-04-24T07:12:22;13.10;69.60
12819;DHT22;6474;53.474;9.894;2023-04-24T07:14:50;13.20;69.60
12819;DHT22;6474;53.474;9.894;2023-04-24T07:17:18;13.30;69.70
12819;DHT22;6474;53.474;9.894;2023-04-24T07:19:46;13.40;69.90
12819;DHT22;6474;53.474;9.894;2023-04-24T07:22:14;13.50;69.90
12819;DHT22;6474;53.474;9.894;2023-04-24T07:24:44;13.50;69.70
12819;DHT22;6474;53.474;9.894;2023-04-24T07:27:12;13.60;69.70
12819;DHT22;6474;53.474;9.894;2023-04-24T07:29:41;13.60;69.60
12819;DHT22;6474;53.474;9.894;2023-04-24T07:32:10;13.60;69.50
12819;DHT22;6474;53.474;9.894;2023-04-24T07:34:37;13.70;69.70
12819;DHT22;6474;53.474;9.894;2023-04-24T07:37:05;13.80;69.70
12819;DHT22;6474;53.474;9.894;2023-04-24T07:39:33;13.80;69.80
12819;DHT22;6474;53.474;9.894;2023-04-24T07:42:02;13.80;69.80
12819;DHT22;6474;53.474;9.894;2023-04-24T07:44:30;13.80;70.00
12819;DHT22;6474;53.474;9.894;2023-04-24T07:46:58;13.90;70.10
12819;DHT22;6474;53.474;9.894;2023-04-24T07:49:26;13.90;70.00
12819;DHT22;6474;53.474;9.894;2023-04-24T07:51:54;13.90;70.00
12819;DHT22;6474;53.474;9.894;2023-04-24T07:54:22;14.00;70.10
12819;DHT22;6474;53.474;9.894;2023-04-24T07:56:52;14.00;70.20
12819;DHT22;6474;53.474;9.894;2023-04-24T07:59:21;14.00;70.20
12819;DHT22;6474;53.474;9.894;2023-04-24T08:01:49;14.00;70.20
12819;DHT22;6474;53.474;9.894;2023-04-24T08:04:17;14.10;70.30
12819;DHT22;6474;53.474;9.894;2023-04-24T08:06:47;14.10;70.40
12819;DHT22;6474;53.474;9.894;2023-04-24T08:09:15;14.10;70.40
12819;DHT22;6474;53.474;9.894;2023-04-24T08:11:43;14.10;70.30
12819;DHT22;6474;53.474;9.894;2023-04-24T08:14:11;14.20;70.50
12819;DHT22;6474;53.474;9.894;2023-04-24T08:16:41;14.20;70.50
12819;DHT22;6474;53.474;9.894;2023-04-24T08:19:10;14.20;70.50
12819;DHT22;6474;53.474;9.894;2023-04-24T08:21:37;14.30;70.50
12819;DHT22;6474;53.474;9.894;2023-04-24T08:24:05;14.30;70.50
12819;DHT22;6474;53.474;9.894;2023-04-24T08:26:34;14.20;70.50
12819;DHT22;6474;53.474;9.894;2023-04-24T08:29:02;14.20;70.60
12819;DHT22;6474;53.474;9.894;2023-04-24T08:31:30;14.20;70.70
12819;DHT22;6474;53.474;9.894;2023-04-24T08:33:59;14.20;70.60
12819;DHT22;6474;53.474;9.894;2023-04-24T08:36:27;14.20;70.60
12819;DHT22;6474;53.474;9.894;2023-04-24T08:39:12;14.20;70.60
12819;DHT22;6474;53.474;9.894;2023-04-24T08:41:42;14.20;70.50
12819;DHT22;6474;53.474;9.894;2023-04-24T08:44:12;14.10;70.40
12819;DHT22;6474;53.474;9.894;2023-04-24T08:46:42;14.10;70.60
12819;DHT22;6474;53.474;9.894;2023-04-24T08:49:13;14.20;70.90
12819;DHT22;6474;53.474;9.894;2023-04-24T08:51:42;14.30;70.90
12819;DHT22;6474;53.474;9.894;2023-04-24T08:54:11;14.40;70.80
12819;DHT22;6474;53.474;9.894;2023-04-24T08:56:40;14.50;70.60
12819;DHT22;6474;53.474;9.894;2023-04-24T08:59:11;14.50;70.40
12819;DHT22;6474;53.474;9.894;2023-04-24T09:01:40;14.60;70.40
12819;DHT22;6474;53.474;9.894;2023-04-24T09:04:09;14.60;70.40
12819;DHT22;6474;53.474;9.894;2023-04-24T09:06:40;14.70;70.50
12819;DHT22;6474;53.474;9.894;2023-04-24T09:09:08;14.70;70.50
12819;DHT22;6474;53.474;9.894;2023-04-24T09:11:38;14.70;70.50
12819;DHT22;6474;53.474;9.894;2023-04-24T09:14:06;14.70;70.50
12819;DHT22;6474;53.474;9.894;2023-04-24T09:16:35;14.60;70.30
12819;DHT22;6474;53.474;9.894;2023-04-24T09:19:03;14.60;70.40
12819;DHT22;6474;53.474;9.894;2023-04-24T09:21:32;14.60;70.50
12819;DHT22;6474;53.474;9.894;2023-04-24T09:24:03;14.60;70.60
12819;DHT22;6474;53.474;9.894;2023-04-24T09:26:32;14.50;70.50
12819;DHT22;6474;53.474;9.894;2023-04-24T09:29:00;14.50;70.60
12819;DHT22;6474;53.474;9.894;2023-04-24T09:31:29;14.50;70.60
12819;DHT22;6474;53.474;9.894;2023-04-24T09:33:59;14.50;70.60
12819;DHT22;6474;53.474;9.894;2023-04-24T09:36:30;14.40;70.50
12819;DHT22;6474;53.474;9.894;2023-04-24T09:39:01;14.40;70.50
12819;DHT22;6474;53.474;9.894;2023-04-24T09:41:32;14.40;70.50
12819;DHT22;6474;53.474;9.894;2023-04-24T09:44:11;14.30;70.40
12819;DHT22;6474;53.474;9.894;2023-04-24T09:46:41;14.30;70.50
12819;DHT22;6474;53.474;9.894;2023-04-24T09:49:10;14.30;70.50
12819;DHT22;6474;53.474;9.894;2023-04-24T09:51:38;14.20;70.40
12819;DHT22;6474;53.474;9.894;2023-04-24T09:54:14;14.20;70.40
12819;DHT22;6474;53.474;9.894;2023-04-24T09:56:44;14.20;70.40
12819;DHT22;6474;53.474;9.894;2023-04-24T09:59:13;14.20;70.40
12819;DHT22;6474;53.474;9.894;2023-04-24T10:01:41;14.20;70.40
12819;DHT22;6474;53.474;9.894;2023-04-24T10:04:18;14.10;70.30
12819;DHT22;6474;53.474;9.894;2023-04-24T10:06:47;14.20;70.50
12819;DHT22;6474;53.474;9.894;2023-04-24T10:09:19;14.20;70.50
12819;DHT22;6474;53.474;9.894;2023-04-24T10:11:49;14.20;70.50
12819;DHT22;6474;53.474;9.894;2023-04-24T10:14:18;14.30;70.50
12819;DHT22;6474;53.474;9.894;2023-04-24T10:16:48;14.20;70.30
12819;DHT22;6474;53.474;9.894;2023-04-24T10:19:17;14.20;70.30
12819;DHT22;6474;53.474;9.894;2023-04-24T10:21:46;14.20;70.30
12819;DHT22;6474;53.474;9.894;2023-04-24T10:24:15;14.20;70.30
12819;DHT22;6474;53.474;9.894;2023-04-24T10:26:45;14.20;70.50
12819;DHT22;6474;53.474;9.894;2023-04-24T10:29:16;14.20;70.50
12819;DHT22;6474;53.474;9.894;2023-04-24T10:31:44;14.30;70.50
12819;DHT22;6474;53.474;9.894;2023-04-24T10:34:15;14.30;70.40
12819;DHT22;6474;53.474;9.894;2023-04-24T10:36:48;14.20;70.20
12819;DHT22;6474;53.474;9.894;2023-04-24T10:39:17;14.20;70.30
12819;DHT22;6474;53.474;9.894;2023-04-24T10:41:54;14.10;70.20
12819;DHT22;6474;53.474;9.894;2023-04-24T10:44:24;14.20;70.40
12819;DHT22;6474;53.474;9.894;2023-04-24T10:46:55;14.40;70.60
12819;DHT22;6474;53.474;9.894;2023-04-24T10:49:28;14.50;70.50
12819;DHT22;6474;53.474;9.894;2023-04-24T10:52:00;14.60;70.40
12819;DHT22;6474;53.474;9.894;2023-04-24T10:54:35;14.60;70.20
12819;DHT22;6474;53.474;9.894;2023-04-24T10:57:27;14.70;70.30
12819;DHT22;6474;53.474;9.894;2023-04-24T11:00:14;14.80;70.40
12819;DHT22;6474;53.474;9.894;2023-04-24T11:02:42;14.90;70.20
12819;DHT22;6474;53.474;9.894;2023-04-24T11:05:16;14.90;70.10
12819;DHT22;6474;53.474;9.894;2023-04-24T11:08:10;15.00;70.20
12819;DHT22;6474;53.474;9.894;2023-04-24T11:10:39;15.10;70.30
12819;DHT22;6474;53.474;9.894;2023-04-24T11:13:08;15.20;70.40
12819;DHT22;6474;53.474;9.894;2023-04-24T11:15:41;15.30;70.40
12819;DHT22;6474;53.474;9.894;2023-04-24T11:18:13;15.40;70.40
12819;DHT22;6474;53.474;9.894;2023-04-24T11:20:44;15.40;70.30
12819;DHT22;6474;53.474;9.894;2023-04-24T11:23:14;15.50;70.40
12819;DHT22;6474;53.474;9.894;2023-04-24T11:25:45;15.60;70.10
12819;DHT22;6474;53.474;9.894;2023-04-24T11:28:15;15.60;70.10
12819;DHT22;6474;53.474;9.894;2023-04-24T11:30:44;15.60;70.20
12819;DHT22;6474;53.474;9.894;2023-04-24T11:33:12;15.60;70.20
12819;DHT22;6474;53.474;9.894;2023-04-24T11:35:47;15.60;70.90
12819;DHT22;6474;53.474;9.894;2023-04-24T11:38:17;15.50;70.00
12819;DHT22;6474;53.474;9.894;2023-04-24T11:40:51;15.50;70.10
12819;DHT22;6474;53.474;9.894;2023-04-24T11:43:23;15.40;69.90
12819;DHT22;6474;53.474;9.894;2023-04-24T11:45:51;15.20;69.90
12819;DHT22;6474;53.474;9.894;2023-04-24T11:48:20;15.10;70.00
12819;DHT22;6474;53.474;9.894;2023-04-24T11:50:50;15.00;70.10
12819;DHT22;6474;53.474;9.894;2023-04-24T11:53:19;14.90;70.10
12819;DHT22;6474;53.474;9.894;2023-04-24T11:55:48;14.90;70.10
12819;DHT22;6474;53.474;9.894;2023-04-24T11:58:21;14.80;70.10
12819;DHT22;6474;53.474;9.894;2023-04-24T12:00:56;14.80;70.10
12819;DHT22;6474;53.474;9.894;2023-04-24T12:03:24;14.80;70.00
12819;DHT22;6474;53.474;9.894;2023-04-24T12:05:52;14.70;69.90
12819;DHT22;6474;53.474;9.894;2023-04-24T12:08:31;14.70;69.90
12819;DHT22;6474;53.474;9.894;2023-04-24T12:11:01;14.70;69.90
12819;DHT22;6474;53.474;9.894;2023-04-24T12:13:30;14.60;69.80
12819;DHT22;6474;53.474;9.894;2023-04-24T12:15:58;14.60;69.80
12819;DHT22;6474;53.474;9.894;2023-04-24T12:18:26;14.70;69.90
12819;DHT22;6474;53.474;9.894;2023-04-24T12:20:54;14.70;69.90
12819;DHT22;6474;53.474;9.894;2023-04-24T12:23:36;14.60;69.80
12819;DHT22;6474;53.474;9.894;2023-04-24T12:26:04;14.60;70.50
12819;DHT22;6474;53.474;9.894;2023-04-24T12:28:36;14.60;69.80
12819;DHT22;6474;53.474;9.894;2023-04-24T12:31:06;14.50;69.70
12819;DHT22;6474;53.474;9.894;2023-04-24T12:33:35;14.50;69.70
12819;DHT22;6474;53.474;9.894;2023-04-24T12:36:03;14.40;69.50
12819;DHT22;6474;53.474;9.894;2023-04-24T12:38:32;14.40;69.50
12819;DHT22;6474;53.474;9.894;2023-04-24T12:41:08;14.30;69.40
12819;DHT22;6474;53.474;9.894;2023-04-24T12:43:38;14.30;69.40
12819;DHT22;6474;53.474;9.894;2023-04-24T12:46:06;14.20;69.40
12819;DHT22;6474;53.474;9.894;2023-04-24T12:48:34;14.10;69.30
12819;DHT22;6474;53.474;9.894;2023-04-24T12:51:02;14.00;69.40
12819;DHT22;6474;53.474;9.894;2023-04-24T12:53:30;13.90;69.50
12819;DHT22;6474;53.474;9.894;2023-04-24T12:55:58;13.80;69.40
12819;DHT22;6474;53.474;9.894;2023-04-24T12:58:25;13.80;69.50
12819;DHT22;6474;53.474;9.894;2023-04-24T13:00:54;13.70;69.50
12819;DHT22;6474;53.474;9.894;2023-04-24T13:03:22;13.60;69.50
12819;DHT22;6474;53.474;9.894;2023-04-24T13:05:50;13.60;69.60
12819;DHT22;6474;53.474;9.894;2023-04-24T13:08:18;13.50;69.60
12819;DHT22;6474;53.474;9.894;2023-04-24T13:10:46;13.50;69.60
12819;DHT22;6474;53.474;9.894;2023-04-24T13:13:14;13.50;69.60
12819;DHT22;6474;53.474;9.894;2023-04-24T13:15:42;13.50;69.70
12819;DHT22;6474;53.474;9.894;2023-04-24T13:18:11;13.50;69.60
12819;DHT22;6474;53.474;9.894;2023-04-24T13:20:39;13.50;69.50
12819;DHT22;6474;53.474;9.894;2023-04-24T13:23:07;13.50;69.40
12819;DHT22;6474;53.474;9.894;2023-04-24T13:25:36;13.50;69.40
12819;DHT22;6474;53.474;9.894;2023-04-24T13:28:05;13.50;69.50
12819;DHT22;6474;53.474;9.894;2023-04-24T13:30:33;13.50;69.50
12819;DHT22;6474;53.474;9.894;2023-04-24T13:33:01;13.50;69.50
12819;DHT22;6474;53.474;9.894;2023-04-24T13:35:30;13.50;69.40
12819;DHT22;6474;53.474;9.894;2023-04-24T13:37:58;13.50;69.40
12819;DHT22;6474;53.474;9.894;2023-04-24T13:40:27;13.50;69.40
12819;DHT22;6474;53.474;9.894;2023-04-24T13:42:55;13.50;69.40
12819;DHT22;6474;53.474;9.894;2023-04-24T13:45:23;13.50;69.40
12819;DHT22;6474;53.474;9.894;2023-04-24T13:47:52;13.60;69.50
12819;DHT22;6474;53.474;9.894;2023-04-24T13:50:21;13.60;69.40
12819;DHT22;6474;53.474;9.894;2023-04-24T13:52:50;13.60;69.40
12819;DHT22;6474;53.474;9.894;2023-04-24T13:55:17;13.60;69.50
12819;DHT22;6474;53.474;9.894;2023-04-24T13:57:45;13.70;69.60
12819;DHT22;6474;53.474;9.894;2023-04-24T14:00:14;13.80;69.70
12819;DHT22;6474;53.474;9.894;2023-04-24T14:02:42;14.10;69.80
12819;DHT22;6474;53.474;9.894;2023-04-24T14:05:10;14.20;69.60
12819;DHT22;6474;53.474;9.894;2023-04-24T14:07:38;14.30;69.40
12819;DHT22;6474;53.474;9.894;2023-04-24T14:10:08;14.40;69.50
12819;DHT22;6474;53.474;9.894;2023-04-24T14:12:36;14.40;69.20
12819;DHT22;6474;53.474;9.894;2023-04-24T14:15:05;14.40;69.10
12819;DHT22;6474;53.474;9.894;2023-04-24T14:17:33;14.30;69.00
12819;DHT22;6474;53.474;9.894;2023-04-24T14:20:01;14.20;69.00
12819;DHT22;6474;53.474;9.894;2023-04-24T14:22:29;14.10;69.10
12819;DHT22;6474;53.474;9.894;2023-04-24T14:24:57;14.00;69.10
12819;DHT22;6474;53.474;9.894;2023-04-24T14:27:26;13.90;69.00
12819;DHT22;6474;53.474;9.894;2023-04-24T14:29:54;13.80;68.90
12819;DHT22;6474;53.474;9.894;2023-04-24T14:32:22;13.70;69.20
12819;DHT22;6474;53.474;9.894;2023-04-24T14:34:50;13.60;69.20
12819;DHT22;6474;53.474;9.894;2023-04-24T14:37:18;13.50;69.30
12819;DHT22;6474;53.474;9.894;2023-04-24T14:39:46;13.30;69.30
12819;DHT22;6474;53.474;9.894;2023-04-24T14:42:27;13.20;69.50
12819;DHT22;6474;53.474;9.894;2023-04-24T14:44:56;13.10;69.70
12819;DHT22;6474;53.474;9.894;2023-04-24T14:47:23;13.10;69.90
12819;DHT22;6474;53.474;9.894;2023-04-24T14:49:52;13.00;69.80
12819;DHT22;6474;53.474;9.894;2023-04-24T14:52:19;13.00;69.80
12819;DHT22;6474;53.474;9.894;2023-04-24T14:54:47;13.00;69.80
12819;DHT22;6474;53.474;9.894;2023-04-24T14:57:15;12.90;69.70
12819;DHT22;6474;53.474;9.894;2023-04-24T14:59:44;12.80;69.60
12819;DHT22;6474;53.474;9.894;2023-04-24T15:02:12;12.60;69.40
12819;DHT22;6474;53.474;9.894;2023-04-24T15:04:42;12.50;69.60
12819;DHT22;6474;53.474;9.894;2023-04-24T15:07:10;12.40;69.90
12819;DHT22;6474;53.474;9.894;2023-04-24T15:09:38;12.20;69.80
12819;DHT22;6474;53.474;9.894;2023-04-24T15:12:06;12.20;70.00
12819;DHT22;6474;53.474;9.894;2023-04-24T15:14:34;12.10;70.10
12819;DHT22;6474;53.474;9.894;2023-04-24T15:17:03;12.00;70.30
12819;DHT22;6474;53.474;9.894;2023-04-24T15:19:31;11.90;70.40
12819;DHT22;6474;53.474;9.894;2023-04-24T15:21:59;11.90;70.70
12819;DHT22;6474;53.474;9.894;2023-04-24T15:24:26;11.90;70.90
12819;DHT22;6474;53.474;9.894;2023-04-24T15:26:55;11.90;70.90
12819;DHT22;6474;53.474;9.894;2023-04-24T15:29:26;11.90;70.80
12819;DHT22;6474;53.474;9.894;2023-04-24T15:31:54;11.90;70.70
12819;DHT22;6474;53.474;9.894;2023-04-24T15:34:24;11.70;70.70
12819;DHT22;6474;53.474;9.894;2023-04-24T15:36:52;11.60;70.70
12819;DHT22;6474;53.474;9.894;2023-04-24T15:39:22;11.50;70.90
12819;DHT22;6474;53.474;9.894;2023-04-24T15:41:50;11.40;71.10
12819;DHT22;6474;53.474;9.894;2023-04-24T15:44:20;11.30;71.20
12819;DHT22;6474;53.474;9.894;2023-04-24T15:46:48;11.20;71.20
12819;DHT22;6474;53.474;9.894;2023-04-24T15:49:17;11.10;71.20
12819;DHT22;6474;53.474;9.894;2023-04-24T15:51:47;11.00;71.10
12819;DHT22;6474;53.474;9.894;2023-04-24T15:54:14;11.00;71.20
12819;DHT22;6474;53.474;9.894;2023-04-24T15:56:42;10.90;71.10